Etusivu
METAR-TAF:

METAR-TAF

Lentoasemat :

Rugby, Pohjois-Dakota, Yhdysvallat

Leveyspiiri: 48-23-25N, Pituuspiiri: 100-01-27W, korkeus merenpinnasta: 472 m

Tämänhetkinen sää

Tämä raportti tehtiin 21 minuuttia sitten, kello 09.55 UTC
Tuuli 9 kn koillisesta
Lämpötila -7°C
Kosteus 93%
Ilmanpaine 1028 hPa
Näkyvyys: 16.1 km
Hajanaisia pilviä 800 ft:n korkeudessa
Pilvistä 4200 ft:n korkeudessa

METAR: KRUG 250955Z AUTO 04009KT 10SM SCT008 OVC042 M07/M08 A3036 RMK AO2

Aika: 04:16 (10:16 UTC)


TAF: puuttuu

Säähavainnot ja -ennusteet yli 4000 lentoasemalta (METAR- ja TAF-raportit).

Käytössä olevat sääasemat on merkitty karttaan keltaisilla ja punaisilla pisteillä.

Aseta hiiri pisteen päälle nähdäksesi sääaseman nimen.

Klikkaa sitten nähdäksesi säähavainnot ja -ennusteet.

Kartan vaihtaminen: klikkaa mustalla rastilla varustettuja vihreitä pisteitä, niin voit zoomata sisään; viivalla varustettua vihreää pistettä, niin voit zoomata ulos tai vihreitä nuolia, niin pääset viereisille kartoille.


METAR-TAF: